Time;durP1;ratioP1;P1;durP2;ratioP2;P2;SDS_P1;SDS_P2;PMS_P1;PMS_P2;Temp;Humidity;BMP_temperature;BMP_pressure;BME280_temperature;BME280_humidity;BME280_pressure;Samples;Min_cycle;Max_cycle;Signal;HPM_P1;HPM_P2
2021/04/18 00:00:26;;;;;;;1.42;0.80;;;19.90;29.50;;;;;;5093538;28;20027;-67
2021/04/18 00:02:51;;;;;;;3.72;1.13;;;19.90;29.50;;;;;;5093494;28;20036;-67
2021/04/18 00:05:20;;;;;;;2.17;0.90;;;19.90;29.50;;;;;;5093628;28;20422;-67
2021/04/18 00:07:46;;;;;;;3.60;1.15;;;19.90;29.50;;;;;;5093869;28;20036;-67
2021/04/18 00:10:12;;;;;;;1.80;0.75;;;19.90;29.50;;;;;;5093739;28;20016;-67
2021/04/18 00:12:38;;;;;;;2.33;1.10;;;19.90;29.50;;;;;;5093696;28;20099;-67
2021/04/18 00:15:06;;;;;;;2.72;1.00;;;19.90;29.60;;;;;;5093590;28;20047;-67
2021/04/18 00:17:32;;;;;;;2.05;0.80;;;19.90;29.60;;;;;;5093474;28;20129;-66
2021/04/18 00:19:58;;;;;;;2.63;0.90;;;19.90;29.60;;;;;;5098759;28;20507;-67
2021/04/18 00:22:24;;;;;;;3.65;1.60;;;19.80;29.60;;;;;;5093442;28;20052;-67
2021/04/18 00:24:49;;;;;;;2.45;1.10;;;19.90;29.60;;;;;;5093755;28;20097;-67
2021/04/18 00:27:15;;;;;;;4.00;1.50;;;19.90;29.60;;;;;;5093808;28;20149;-66
2021/04/18 00:29:40;;;;;;;3.60;1.52;;;19.80;29.60;;;;;;5093875;28;20032;-67
2021/04/18 00:32:06;;;;;;;2.90;1.30;;;19.80;29.60;;;;;;5093515;28;20027;-67
2021/04/18 00:34:31;;;;;;;2.90;1.27;;;19.90;29.60;;;;;;5093019;28;20050;-67
2021/04/18 00:36:57;;;;;;;3.72;1.35;;;19.90;29.60;;;;;;5093159;28;20043;-67
2021/04/18 00:39:23;;;;;;;3.60;1.40;;;19.80;29.70;;;;;;5093288;28;20026;-67
2021/04/18 00:41:48;;;;;;;3.38;1.40;;;19.90;29.60;;;;;;5093556;28;20093;-67
2021/04/18 00:44:14;;;;;;;2.67;1.25;;;19.90;29.70;;;;;;5093191;28;20028;-66
2021/04/18 00:46:39;;;;;;;3.00;1.27;;;19.80;29.70;;;;;;5093154;28;20034;-67
2021/04/18 00:49:06;;;;;;;4.65;1.58;;;19.80;29.70;;;;;;5095765;28;20024;-66
2021/04/18 00:51:32;;;;;;;4.18;1.10;;;19.90;29.70;;;;;;5097403;28;20024;-67
2021/04/18 00:53:57;;;;;;;5.38;1.45;;;19.80;29.70;;;;;;5097287;28;20116;-67
2021/04/18 00:56:23;;;;;;;4.13;1.60;;;19.80;29.70;;;;;;5097329;28;20056;-67
2021/04/18 00:58:49;;;;;;;3.45;1.27;;;19.80;29.70;;;;;;5098665;28;20028;-67
2021/04/18 01:01:14;;;;;;;3.47;1.50;;;19.80;29.70;;;;;;5097940;28;20068;-67
2021/04/18 01:03:40;;;;;;;4.95;1.60;;;19.80;29.80;;;;;;5098140;28;20491;-66
2021/04/18 01:06:06;;;;;;;4.55;1.55;;;19.80;29.70;;;;;;5097771;28;20032;-67
2021/04/18 01:08:31;;;;;;;3.67;1.40;;;19.80;29.70;;;;;;5097492;28;20028;-67
2021/04/18 01:10:57;;;;;;;3.50;1.50;;;19.80;29.80;;;;;;5097401;28;20020;-67
2021/04/18 01:13:23;;;;;;;3.42;1.50;;;19.80;29.80;;;;;;5097380;28;20048;-67
2021/04/18 01:15:49;;;;;;;3.95;1.42;;;19.80;29.80;;;;;;5096742;28;20062;-67
2021/04/18 01:18:14;;;;;;;3.63;1.40;;;19.80;29.80;;;;;;5096689;28;20027;-67
2021/04/18 01:20:40;;;;;;;3.92;1.65;;;19.80;29.80;;;;;;5096669;28;20047;-67
2021/04/18 01:23:05;;;;;;;5.05;1.90;;;19.80;29.80;;;;;;5096656;28;20063;-67
2021/04/18 01:25:31;;;;;;;4.88;1.83;;;19.80;29.80;;;;;;5095539;28;20455;-67
2021/04/18 01:27:57;;;;;;;3.28;1.50;;;19.70;29.80;;;;;;5096718;28;20024;-67
2021/04/18 01:30:25;;;;;;;4.03;1.85;;;19.70;29.90;;;;;;5096603;28;20080;-67
2021/04/18 01:32:54;;;;;;;4.22;1.77;;;19.80;29.90;;;;;;5096719;28;20432;-67
2021/04/18 01:35:20;;;;;;;5.78;2.03;;;19.80;29.90;;;;;;5102473;28;20028;-67
2021/04/18 01:37:46;;;;;;;3.38;1.58;;;19.80;29.90;;;;;;5098666;28;20028;-67
2021/04/18 01:40:14;;;;;;;3.92;1.73;;;19.70;29.90;;;;;;5097281;28;20024;-67
2021/04/18 01:42:42;;;;;;;4.18;1.70;;;19.80;29.90;;;;;;5097174;28;20487;-67
2021/04/18 01:45:08;;;;;;;3.97;1.45;;;19.80;29.90;;;;;;5096800;28;20028;-66
2021/04/18 01:47:34;;;;;;;5.75;2.05;;;19.70;29.90;;;;;;5096508;28;20024;-67
2021/04/18 01:50:00;;;;;;;4.65;1.85;;;19.70;30.00;;;;;;5096460;28;20027;-67
2021/04/18 01:52:26;;;;;;;5.00;2.20;;;19.70;30.00;;;;;;5096416;28;20024;-67
2021/04/18 01:54:52;;;;;;;5.43;2.20;;;19.70;30.00;;;;;;5099051;28;20107;-68
2021/04/18 01:57:18;;;;;;;3.78;1.80;;;19.70;30.00;;;;;;5106031;28;20032;-67
2021/04/18 01:59:43;;;;;;;3.90;1.65;;;19.70;30.00;;;;;;5101535;28;20032;-67
2021/04/18 02:02:11;;;;;;;5.40;2.20;;;19.70;30.00;;;;;;5096537;28;20039;-68
2021/04/18 02:04:37;;;;;;;5.05;1.95;;;19.70;30.00;;;;;;5097174;28;20024;-68
2021/04/18 02:07:04;;;;;;;4.93;1.70;;;19.70;30.00;;;;;;5096571;28;20032;-67
2021/04/18 02:09:30;;;;;;;4.32;2.08;;;19.70;30.00;;;;;;5096770;28;20020;-67
2021/04/18 02:11:59;;;;;;;5.00;2.42;;;19.70;30.00;;;;;;5096461;28;20025;-67
2021/04/18 02:14:25;;;;;;;5.60;2.13;;;19.70;30.00;;;;;;5095736;28;20077;-67
2021/04/18 02:16:51;;;;;;;4.57;2.10;;;19.70;30.00;;;;;;5095627;28;20027;-67
2021/04/18 02:19:17;;;;;;;4.72;2.22;;;19.70;30.00;;;;;;5095403;28;20024;-68
2021/04/18 02:21:42;;;;;;;4.80;1.88;;;19.70;30.00;;;;;;5095501;28;20040;-67
2021/04/18 02:24:08;;;;;;;4.20;1.75;;;19.70;30.00;;;;;;5095716;28;20475;-67
2021/04/18 02:26:34;;;;;;;5.20;2.50;;;19.70;30.00;;;;;;5095624;28;20024;-67
2021/04/18 02:28:59;;;;;;;4.28;1.90;;;19.70;30.00;;;;;;5095508;28;20058;-67
2021/04/18 02:31:25;;;;;;;5.85;2.22;;;19.70;30.00;;;;;;5095518;28;20024;-67
2021/04/18 02:33:50;;;;;;;6.13;2.70;;;19.70;30.00;;;;;;5095320;28;20341;-67
2021/04/18 02:36:16;;;;;;;5.78;3.10;;;19.70;30.00;;;;;;5095071;28;20025;-67
2021/04/18 02:38:41;;;;;;;6.90;3.00;;;19.70;30.00;;;;;;5095247;28;20095;-67
2021/04/18 02:41:07;;;;;;;5.72;2.60;;;19.70;30.00;;;;;;5095109;28;20028;-67
2021/04/18 02:43:32;;;;;;;7.20;2.95;;;19.70;30.00;;;;;;5094988;28;20415;-68
2021/04/18 02:45:58;;;;;;;5.57;2.50;;;19.70;30.00;;;;;;5095078;28;20365;-67
2021/04/18 02:48:24;;;;;;;6.57;2.60;;;19.70;30.10;;;;;;5095041;28;20106;-68
2021/04/18 02:50:49;;;;;;;6.28;2.47;;;19.70;30.10;;;;;;5095272;28;20035;-68
2021/04/18 02:53:15;;;;;;;5.63;2.72;;;19.70;30.10;;;;;;5094003;28;20387;-67
2021/04/18 02:55:41;;;;;;;5.03;2.30;;;19.70;30.10;;;;;;5094708;28;20020;-67
2021/04/18 02:58:06;;;;;;;6.18;2.53;;;19.70;30.10;;;;;;5094850;28;20064;-67
2021/04/18 03:00:32;;;;;;;5.72;2.80;;;19.70;30.00;;;;;;5095154;28;20463;-67
2021/04/18 03:02:57;;;;;;;6.15;3.00;;;19.70;30.10;;;;;;5095154;28;20383;-67
2021/04/18 03:05:23;;;;;;;5.50;2.80;;;19.70;30.10;;;;;;5094896;28;20027;-67
2021/04/18 03:07:49;;;;;;;5.93;3.05;;;19.60;30.10;;;;;;5094570;28;20051;-67
2021/04/18 03:10:15;;;;;;;5.18;2.50;;;19.70;30.10;;;;;;5094448;28;20028;-67
2021/04/18 03:12:40;;;;;;;5.03;2.40;;;19.70;30.10;;;;;;5094186;28;20058;-67
2021/04/18 03:15:07;;;;;;;6.05;2.53;;;19.70;30.10;;;;;;5094488;28;20383;-67
2021/04/18 03:17:33;;;;;;;5.78;2.78;;;19.70;30.10;;;;;;5094398;28;20020;-67
2021/04/18 03:19:58;;;;;;;4.57;2.38;;;19.70;30.10;;;;;;5094161;28;20047;-67
2021/04/18 03:22:24;;;;;;;6.10;2.42;;;19.60;30.10;;;;;;5094261;28;20044;-67
2021/04/18 03:24:50;;;;;;;6.05;3.05;;;19.70;30.20;;;;;;5094631;28;20112;-67
2021/04/18 03:27:15;;;;;;;5.63;2.45;;;19.60;30.10;;;;;;5094267;28;20036;-67
2021/04/18 03:29:41;;;;;;;5.32;2.35;;;19.70;30.20;;;;;;5094729;28;20020;-67
2021/04/18 03:32:06;;;;;;;5.65;2.50;;;19.70;30.20;;;;;;5094034;28;20024;-67
2021/04/18 03:34:32;;;;;;;5.80;2.97;;;19.60;30.20;;;;;;5094623;28;20099;-67
2021/04/18 03:36:58;;;;;;;9.18;5.20;;;19.60;30.20;;;;;;5094274;28;20467;-67
2021/04/18 03:39:23;;;;;;;6.05;2.92;;;19.60;30.20;;;;;;5094405;28;20020;-67
2021/04/18 03:41:49;;;;;;;6.10;3.00;;;19.60;30.20;;;;;;5094037;28;20407;-67
2021/04/18 03:44:14;;;;;;;6.03;2.67;;;19.70;30.20;;;;;;5093949;28;20020;-68
2021/04/18 03:46:40;;;;;;;5.90;2.67;;;19.70;30.20;;;;;;5094171;28;20483;-67
2021/04/18 03:49:06;;;;;;;6.07;2.70;;;19.70;30.30;;;;;;5094173;28;20020;-67
2021/04/18 03:51:32;;;;;;;5.63;2.80;;;19.60;30.20;;;;;;5093975;28;20024;-67
2021/04/18 03:53:57;;;;;;;5.95;2.80;;;19.60;30.20;;;;;;5096263;28;20031;-67
2021/04/18 03:56:23;;;;;;;5.40;2.88;;;19.60;30.20;;;;;;5094637;28;20031;-67
2021/04/18 03:58:48;;;;;;;6.40;3.10;;;19.60;30.30;;;;;;5094144;28;20043;-67
2021/04/18 04:01:14;;;;;;;5.47;2.85;;;19.60;30.30;;;;;;5093793;28;20024;-67
2021/04/18 04:03:39;;;;;;;6.88;2.90;;;19.60;30.30;;;;;;5093712;28;20019;-68
2021/04/18 04:06:05;;;;;;;5.00;2.47;;;19.60;30.30;;;;;;5093762;28;20028;-67
2021/04/18 04:08:32;;;;;;;7.18;2.95;;;19.60;30.30;;;;;;5093855;28;20099;-67
2021/04/18 04:10:58;;;;;;;6.68;3.13;;;19.60;30.30;;;;;;5093665;28;20020;-67
2021/04/18 04:13:23;;;;;;;6.10;3.22;;;19.60;30.30;;;;;;5093920;28;20050;-67
2021/04/18 04:15:49;;;;;;;5.53;2.80;;;19.70;30.30;;;;;;5092541;28;20127;-68
2021/04/18 04:18:15;;;;;;;5.82;2.65;;;19.70;30.30;;;;;;5093614;28;20028;-67
2021/04/18 04:20:40;;;;;;;6.45;2.92;;;19.70;30.20;;;;;;5093595;28;20028;-67
2021/04/18 04:23:06;;;;;;;6.47;2.97;;;19.70;30.20;;;;;;5092770;28;20120;-67
2021/04/18 04:25:33;;;;;;;6.45;3.10;;;19.70;30.20;;;;;;5093373;28;20020;-67
2021/04/18 04:27:58;;;;;;;6.05;2.67;;;19.80;30.20;;;;;;5093444;28;20227;-67
2021/04/18 04:30:25;;;;;;;6.22;2.95;;;19.80;30.20;;;;;;5093502;28;20566;-68
2021/04/18 04:32:50;;;;;;;5.70;2.53;;;19.90;30.20;;;;;;5093397;28;20028;-67
2021/04/18 04:35:16;;;;;;;6.32;2.83;;;19.90;30.20;;;;;;5093281;28;20031;-68
2021/04/18 04:37:41;;;;;;;6.25;2.95;;;19.90;30.20;;;;;;5093622;28;20020;-67
2021/04/18 04:40:07;;;;;;;5.40;2.50;;;19.90;30.10;;;;;;5093231;28;20388;-67
2021/04/18 04:42:33;;;;;;;5.95;2.58;;;20.00;30.10;;;;;;5093279;28;20398;-67
2021/04/18 04:44:58;;;;;;;7.13;2.90;;;20.00;30.10;;;;;;5091920;28;20036;-67
2021/04/18 04:47:24;;;;;;;5.97;2.75;;;20.00;30.10;;;;;;5093103;28;20028;-67
2021/04/18 04:49:50;;;;;;;4.72;2.30;;;20.00;30.10;;;;;;5093501;28;20024;-67
2021/04/18 04:52:15;;;;;;;6.32;2.70;;;20.00;30.10;;;;;;5093075;28;20032;-67
2021/04/18 04:54:41;;;;;;;5.80;3.22;;;20.00;30.10;;;;;;5093070;28;20027;-67
2021/04/18 04:57:07;;;;;;;4.90;2.13;;;20.00;30.10;;;;;;5092965;28;20046;-67
2021/04/18 04:59:33;;;;;;;5.65;2.58;;;20.00;30.10;;;;;;5093301;28;20028;-67
2021/04/18 05:01:58;;;;;;;5.20;2.85;;;20.10;30.10;;;;;;5093291;28;20271;-68
2021/04/18 05:04:24;;;;;;;5.78;2.75;;;20.00;30.10;;;;;;5092700;28;20030;-68
2021/04/18 05:06:49;;;;;;;6.60;2.85;;;20.00;30.10;;;;;;5092553;28;20024;-67
2021/04/18 05:09:15;;;;;;;5.65;2.55;;;20.10;30.10;;;;;;5092839;28;20093;-67
2021/04/18 05:11:41;;;;;;;5.88;2.80;;;20.00;30.20;;;;;;5092833;28;20020;-67
2021/04/18 05:14:06;;;;;;;4.35;2.28;;;20.10;30.20;;;;;;5092801;28;20056;-68
2021/04/18 05:16:32;;;;;;;4.68;2.28;;;20.10;30.20;;;;;;5093110;28;20463;-67
2021/04/18 05:18:57;;;;;;;6.55;2.67;;;20.10;30.20;;;;;;5093203;28;20032;-67
2021/04/18 05:21:24;;;;;;;5.30;2.50;;;20.10;30.20;;;;;;5093073;28;20082;-66
2021/04/18 05:23:50;;;;;;;5.80;2.40;;;20.10;30.20;;;;;;5092820;28;20032;-67
2021/04/18 05:26:15;;;;;;;6.57;2.53;;;20.10;30.20;;;;;;5093341;28;20031;-67
2021/04/18 05:28:41;;;;;;;5.80;2.65;;;20.10;30.20;;;;;;5093013;28;20031;-67
2021/04/18 05:31:06;;;;;;;5.60;2.38;;;20.10;30.20;;;;;;5093363;28;20494;-67
2021/04/18 05:33:32;;;;;;;6.13;2.42;;;20.10;30.20;;;;;;5093693;28;20081;-67
2021/04/18 05:35:58;;;;;;;5.13;2.53;;;20.10;30.20;;;;;;5096271;28;20027;-68
2021/04/18 05:38:23;;;;;;;6.10;2.65;;;20.10;30.20;;;;;;5096386;28;20488;-67
2021/04/18 05:40:49;;;;;;;6.07;2.55;;;20.10;30.20;;;;;;5096247;28;20020;-68
2021/04/18 05:43:15;;;;;;;5.38;2.13;;;20.10;30.20;;;;;;5096105;28;20464;-68
2021/04/18 05:45:41;;;;;;;5.35;2.47;;;20.10;30.20;;;;;;5096228;28;20387;-67
2021/04/18 05:48:07;;;;;;;6.00;2.75;;;20.10;30.20;;;;;;5095998;28;20024;-67
2021/04/18 05:50:33;;;;;;;6.45;2.70;;;20.20;30.20;;;;;;5096034;28;20020;-68
2021/04/18 05:52:58;;;;;;;5.70;2.53;;;20.20;30.20;;;;;;5096572;28;20375;-67
2021/04/18 05:55:24;;;;;;;5.50;2.33;;;20.20;30.20;;;;;;5096064;28;20103;-67
2021/04/18 05:57:50;;;;;;;4.85;2.55;;;20.20;30.20;;;;;;5095992;28;20529;-67
2021/04/18 06:00:16;;;;;;;5.68;2.70;;;20.20;30.30;;;;;;5095920;28;20058;-67
2021/04/18 06:02:41;;;;;;;6.72;2.63;;;20.20;30.30;;;;;;5095729;28;20032;-67
2021/04/18 06:05:09;;;;;;;4.65;2.20;;;20.20;30.30;;;;;;5095987;28;20067;-68
2021/04/18 06:07:35;;;;;;;6.30;2.47;;;20.20;30.20;;;;;;5095418;28;20016;-67
2021/04/18 06:10:02;;;;;;;6.80;2.42;;;20.20;30.20;;;;;;5095567;28;20012;-67
2021/04/18 06:12:27;;;;;;;5.53;2.10;;;20.20;30.30;;;;;;5095401;28;20077;-67
2021/04/18 06:14:53;;;;;;;7.35;2.90;;;20.20;30.20;;;;;;5095925;28;20407;-67
2021/04/18 06:17:19;;;;;;;6.43;2.40;;;20.20;30.30;;;;;;5095982;28;20047;-68
2021/04/18 06:19:44;;;;;;;5.60;2.40;;;20.20;30.30;;;;;;5095509;28;20024;-67
2021/04/18 06:22:10;;;;;;;4.30;2.30;;;20.20;30.30;;;;;;5095193;28;20126;-67
2021/04/18 06:24:35;;;;;;;5.28;2.03;;;20.20;30.30;;;;;;5095620;28;20028;-68
2021/04/18 06:27:01;;;;;;;5.45;2.53;;;20.20;30.30;;;;;;5095606;28;20391;-67
2021/04/18 06:29:26;;;;;;;7.03;2.42;;;20.20;30.30;;;;;;5095588;28;20375;-68
2021/04/18 06:31:52;;;;;;;5.50;2.30;;;20.20;30.30;;;;;;5095546;28;20028;-67
2021/04/18 06:34:22;;;;;;;3.80;2.00;;;20.20;30.30;;;;;;5095683;28;20024;-67
2021/04/18 06:36:51;;;;;;;6.05;2.15;;;20.30;30.30;;;;;;5095259;28;20429;-68
2021/04/18 06:39:17;;;;;;;5.18;2.72;;;20.30;30.30;;;;;;5095236;28;20059;-69
2021/04/18 06:41:52;;;;;;;5.25;2.22;;;20.30;30.30;;;;;;5095180;28;20067;-67
2021/04/18 06:44:18;;;;;;;5.03;2.20;;;20.30;30.30;;;;;;5094908;28;20016;-67
2021/04/18 06:46:44;;;;;;;4.03;1.95;;;20.30;30.30;;;;;;5095287;28;20437;-67
2021/04/18 06:49:10;;;;;;;5.70;2.58;;;20.30;30.30;;;;;;5095138;28;20138;-68
2021/04/18 06:51:37;;;;;;;6.38;2.53;;;20.30;30.30;;;;;;5094904;28;20028;-67
2021/04/18 06:54:03;;;;;;;4.95;2.20;;;20.30;30.30;;;;;;5094908;28;20123;-68
2021/04/18 06:56:29;;;;;;;4.97;2.25;;;20.30;30.30;;;;;;5094885;28;20036;-67
2021/04/18 06:58:58;;;;;;;5.68;2.60;;;20.30;30.30;;;;;;5095086;28;20157;-67
2021/04/18 07:01:24;;;;;;;4.72;2.03;;;20.30;30.30;;;;;;5094715;28;20036;-68
2021/04/18 07:04:08;;;;;;;6.18;2.70;;;20.30;30.30;;;;;;5094408;28;20016;-67
2021/04/18 07:06:48;;;;;;;5.65;2.42;;;20.30;30.30;;;;;;5095017;28;20111;-68
2021/04/18 07:09:15;;;;;;;4.45;2.15;;;20.40;30.30;;;;;;5094848;28;20552;-67
2021/04/18 07:11:43;;;;;;;4.65;2.15;;;20.40;30.30;;;;;;5094636;28;20118;-67
2021/04/18 07:14:25;;;;;;;5.25;2.50;;;20.40;30.30;;;;;;5094597;28;20559;-67
2021/04/18 07:16:53;;;;;;;4.68;2.13;;;20.40;30.30;;;;;;5094304;28;20082;-67
2021/04/18 07:19:21;;;;;;;5.18;2.40;;;20.40;30.30;;;;;;5094894;28;20437;-68
2021/04/18 07:21:50;;;;;;;5.93;2.33;;;20.40;30.30;;;;;;5096183;28;20048;-67
2021/04/18 07:24:16;;;;;;;4.07;2.25;;;20.40;30.30;;;;;;5095135;28;20157;-67
2021/04/18 07:26:42;;;;;;;5.35;2.00;;;20.40;30.30;;;;;;5094937;28;20020;-67
2021/04/18 07:29:13;;;;;;;6.22;2.30;;;20.40;30.30;;;;;;5093478;28;20035;-68
2021/04/18 07:31:38;;;;;;;4.93;2.10;;;20.40;30.30;;;;;;5094465;28;20103;-67
2021/04/18 07:34:09;;;;;;;6.60;2.20;;;20.40;30.30;;;;;;5093831;28;20071;-67
2021/04/18 07:36:37;;;;;;;4.68;2.00;;;20.40;30.30;;;;;;5093875;28;20042;-67
2021/04/18 07:39:06;;;;;;;4.93;1.95;;;20.40;30.30;;;;;;5094361;28;20024;-67
2021/04/18 07:41:32;;;;;;;4.68;2.10;;;20.40;30.30;;;;;;5093688;28;20036;-67
2021/04/18 07:43:58;;;;;;;3.88;1.95;;;20.40;30.30;;;;;;5094088;28;20031;-67
2021/04/18 07:46:23;;;;;;;4.57;2.10;;;20.40;30.30;;;;;;5093860;28;20024;-67
2021/04/18 07:48:49;;;;;;;5.45;2.45;;;20.40;30.30;;;;;;5093904;28;20063;-67
2021/04/18 07:51:17;;;;;;;4.10;2.00;;;20.40;30.40;;;;;;5094112;28;20028;-68
2021/04/18 07:53:44;;;;;;;4.55;2.15;;;20.40;30.40;;;;;;5093987;28;20024;-67
2021/04/18 07:56:14;;;;;;;4.28;1.70;;;20.40;30.40;;;;;;5093736;28;20031;-67
2021/04/18 07:58:41;;;;;;;5.03;2.30;;;20.40;30.40;;;;;;5093570;28;20036;-67
2021/04/18 08:01:07;;;;;;;3.70;1.73;;;20.40;30.40;;;;;;5093911;28;20028;-67
2021/04/18 08:03:33;;;;;;;4.10;1.90;;;20.40;30.40;;;;;;5093944;28;20124;-67
2021/04/18 08:05:59;;;;;;;4.50;2.00;;;20.40;30.40;;;;;;5093771;28;20497;-67
2021/04/18 08:08:40;;;;;;;3.90;1.90;;;20.50;30.40;;;;;;5093775;28;20061;-67
2021/04/18 08:11:10;;;;;;;4.05;1.92;;;20.40;30.40;;;;;;5094097;28;20032;-67
2021/04/18 08:13:43;;;;;;;4.25;2.00;;;20.40;30.40;;;;;;5093606;28;20034;-67
2021/04/18 08:16:09;;;;;;;4.90;2.15;;;20.40;30.40;;;;;;5093517;28;20027;-67
2021/04/18 08:18:43;;;;;;;5.05;1.88;;;20.40;30.40;;;;;;5093366;28;20024;-67
2021/04/18 08:21:36;;;;;;;5.20;2.08;;;20.40;30.50;;;;;;5093460;28;20062;-67
2021/04/18 08:24:06;;;;;;;3.83;1.90;;;20.40;30.50;;;;;;5093478;28;20043;-67
2021/04/18 08:26:33;;;;;;;3.72;1.80;;;20.40;30.50;;;;;;5093553;28;20023;-67
2021/04/18 08:28:59;;;;;;;3.70;1.80;;;20.40;30.50;;;;;;5093271;28;20089;-67
2021/04/18 08:31:29;;;;;;;4.70;2.20;;;20.50;30.50;;;;;;5093254;28;20020;-67
2021/04/18 08:34:00;;;;;;;4.40;2.10;;;20.50;30.50;;;;;;5093676;28;20147;-67
2021/04/18 08:36:34;;;;;;;4.35;1.95;;;20.40;30.50;;;;;;5093630;28;20054;-67
2021/04/18 08:39:05;;;;;;;4.32;1.83;;;20.50;30.50;;;;;;5093292;28;20161;-67
2021/04/18 08:41:41;;;;;;;4.15;1.95;;;20.50;30.50;;;;;;5093537;28;20040;-67
2021/04/18 08:44:22;;;;;;;4.25;1.60;;;20.50;30.40;;;;;;5093256;28;20479;-67
2021/04/18 08:46:50;;;;;;;3.92;2.00;;;20.50;30.40;;;;;;5093400;28;20031;-67
2021/04/18 08:49:27;;;;;;;4.60;2.00;;;20.50;30.40;;;;;;5093314;28;20566;-68
2021/04/18 08:51:53;;;;;;;5.15;2.15;;;20.60;30.40;;;;;;5091676;28;20062;-67
2021/04/18 08:54:28;;;;;;;4.13;1.80;;;20.60;30.40;;;;;;5092944;28;20103;-66
2021/04/18 08:56:56;;;;;;;3.25;1.67;;;20.70;30.40;;;;;;5093168;28;20025;-67
2021/04/18 08:59:22;;;;;;;5.43;2.13;;;20.70;30.30;;;;;;5092936;28;20024;-67
2021/04/18 09:01:59;;;;;;;4.22;1.85;;;20.60;30.30;;;;;;5093182;28;20043;-67
2021/04/18 09:04:26;;;;;;;4.43;2.00;;;20.60;30.40;;;;;;5093248;28;20024;-67
2021/04/18 09:06:52;;;;;;;3.60;1.90;;;20.70;30.40;;;;;;5093147;28;20024;-67
2021/04/18 09:09:18;;;;;;;5.25;1.80;;;20.70;30.40;;;;;;5094142;28;20024;-67
2021/04/18 09:11:48;;;;;;;5.68;1.90;;;20.70;30.40;;;;;;5096841;28;20019;-67
2021/04/18 09:14:23;;;;;;;5.13;1.98;;;20.70;30.40;;;;;;5097251;28;20106;-67
2021/04/18 09:16:48;;;;;;;;;;;20.70;30.40;;;;;;5097327;28;20020;-67
2021/04/18 09:19:26;;;;;;;5.50;1.95;;;20.60;30.40;;;;;;5096628;28;19911;-67
2021/04/18 09:22:10;;;;;;;4.68;1.63;;;20.70;30.40;;;;;;5096559;28;20131;-67
2021/04/18 09:24:40;;;;;;;4.57;2.10;;;20.70;30.40;;;;;;5096703;28;20028;-67
2021/04/18 09:27:11;;;;;;;3.85;1.73;;;20.70;30.50;;;;;;5096573;28;20024;-67
2021/04/18 09:29:46;;;;;;;5.25;2.00;;;20.70;30.50;;;;;;5096949;28;20024;-66
2021/04/18 09:32:14;;;;;;;4.78;1.70;;;20.60;30.40;;;;;;5096532;28;20103;-67
2021/04/18 09:34:41;;;;;;;4.53;1.80;;;20.70;30.50;;;;;;5096413;28;20032;-67
2021/04/18 09:37:11;;;;;;;3.38;1.55;;;20.60;30.50;;;;;;5095836;28;20044;-67
2021/04/18 09:39:37;;;;;;;5.32;1.90;;;20.60;30.50;;;;;;5095080;28;20106;-67
2021/04/18 09:42:05;;;;;;;4.35;1.70;;;20.60;30.50;;;;;;5095992;28;20093;-67
2021/04/18 09:44:39;;;;;;;4.22;1.88;;;20.60;30.50;;;;;;5096046;28;20024;-67
2021/04/18 09:47:07;;;;;;;3.33;1.67;;;20.60;30.50;;;;;;5096309;28;20077;-67
2021/04/18 09:49:48;;;;;;;3.42;1.60;;;20.60;30.50;;;;;;5096512;28;20028;-67
2021/04/18 09:52:38;;;;;;;4.57;1.67;;;20.70;30.50;;;;;;5096321;28;20446;-67
2021/04/18 09:55:24;;;;;;;4.45;1.90;;;20.60;30.50;;;;;;5096536;28;20069;-67
2021/04/18 09:57:57;;;;;;;5.68;2.00;;;20.70;30.50;;;;;;5096309;28;20032;-67
2021/04/18 10:00:33;;;;;;;6.38;1.85;;;20.60;30.50;;;;;;5095829;28;20020;-67
2021/04/18 10:03:08;;;;;;;4.30;1.95;;;20.70;30.60;;;;;;5095718;28;20504;-66
2021/04/18 10:05:43;;;;;;;4.43;2.00;;;20.70;30.60;;;;;;5096015;28;20051;-67
2021/04/18 10:08:23;;;;;;;4.63;1.95;;;20.60;30.60;;;;;;5095845;28;20035;-67
2021/04/18 10:11:10;;;;;;;4.45;1.85;;;20.60;30.50;;;;;;5096038;28;20020;-67
2021/04/18 10:13:51;;;;;;;2.97;1.50;;;20.70;30.60;;;;;;5085835;28;20028;-67
2021/04/18 10:16:19;;;;;;;3.55;1.58;;;20.70;30.60;;;;;;5098313;28;20036;-67
2021/04/18 10:19:05;;;;;;;4.95;2.10;;;20.70;30.60;;;;;;5095576;28;20110;-67
2021/04/18 10:21:31;;;;;;;4.53;1.70;;;20.70;30.60;;;;;;5094927;28;20032;-67
2021/04/18 10:23:56;;;;;;;3.75;1.88;;;20.70;30.60;;;;;;5095663;28;20028;-67
2021/04/18 10:26:23;;;;;;;3.83;1.77;;;20.70;30.60;;;;;;5095594;28;20113;-67
2021/04/18 10:28:50;;;;;;;4.57;1.75;;;20.70;30.60;;;;;;5095935;28;20032;-67
2021/04/18 10:31:17;;;;;;;3.70;1.95;;;20.70;30.50;;;;;;5095571;28;20101;-67
2021/04/18 10:33:44;;;;;;;3.60;1.50;;;20.70;30.50;;;;;;5095519;28;20055;-67
2021/04/18 10:36:10;;;;;;;6.47;2.08;;;20.70;30.50;;;;;;5095509;28;20024;-67
2021/04/18 10:38:36;;;;;;;3.95;1.77;;;20.80;30.50;;;;;;5095814;28;20016;-67
2021/04/18 10:41:06;;;;;;;3.85;1.75;;;20.70;30.50;;;;;;5095169;28;20360;-67
2021/04/18 10:43:32;;;;;;;4.40;1.50;;;20.70;30.60;;;;;;5095295;28;20024;-67
2021/04/18 10:45:58;;;;;;;4.25;1.48;;;20.70;30.60;;;;;;5094697;28;20036;-67
2021/04/18 10:48:24;;;;;;;3.97;2.00;;;20.70;30.60;;;;;;5095427;28;20028;-67
2021/04/18 10:50:49;;;;;;;4.78;1.80;;;20.70;30.60;;;;;;5095043;28;20063;-69
2021/04/18 10:53:15;;;;;;;3.80;1.70;;;20.70;30.70;;;;;;5095010;28;20016;-67
2021/04/18 10:55:41;;;;;;;2.90;1.58;;;20.60;30.70;;;;;;5095396;28;20028;-67
2021/04/18 10:58:08;;;;;;;3.97;1.58;;;20.70;30.70;;;;;;5097050;28;20028;-67
2021/04/18 11:00:34;;;;;;;3.78;1.60;;;20.60;30.70;;;;;;5099540;28;20121;-66
2021/04/18 11:02:59;;;;;;;3.88;1.83;;;20.60;30.70;;;;;;5095139;28;20122;-67
2021/04/18 11:05:25;;;;;;;3.33;1.45;;;20.60;30.70;;;;;;5094962;28;20035;-67
2021/04/18 11:07:50;;;;;;;4.45;1.65;;;20.60;30.70;;;;;;5094935;28;20039;-67
2021/04/18 11:10:17;;;;;;;3.53;1.50;;;20.60;30.70;;;;;;5094924;28;20028;-67
2021/04/18 11:12:42;;;;;;;3.22;1.50;;;20.60;30.70;;;;;;5097704;28;20376;-67
2021/04/18 11:15:12;;;;;;;4.30;1.55;;;20.60;30.70;;;;;;5098803;28;20027;-67
2021/04/18 11:17:38;;;;;;;2.78;1.42;;;20.60;30.70;;;;;;5095627;28;20028;-67
2021/04/18 11:20:12;;;;;;;3.55;1.50;;;20.60;30.70;;;;;;5094893;28;20590;-67
2021/04/18 11:22:38;;;;;;;3.65;1.60;;;20.70;30.70;;;;;;5094274;28;20046;-67
2021/04/18 11:25:13;;;;;;;4.25;1.67;;;20.70;30.70;;;;;;5094499;28;20024;-67
2021/04/18 11:27:39;;;;;;;4.10;1.65;;;20.70;30.70;;;;;;5094743;28;20054;-66
2021/04/18 11:30:11;;;;;;;3.40;1.73;;;20.70;30.70;;;;;;5094200;28;20374;-67
2021/04/18 11:32:37;;;;;;;4.47;2.03;;;20.70;30.70;;;;;;5093209;28;20110;-67
2021/04/18 11:35:05;;;;;;;4.30;1.80;;;20.70;30.70;;;;;;5093927;28;20024;-67
2021/04/18 11:37:31;;;;;;;3.25;1.40;;;20.70;30.70;;;;;;5094035;28;20081;-67
2021/04/18 11:39:57;;;;;;;3.92;1.33;;;20.60;30.70;;;;;;5094091;28;20024;-67
2021/04/18 11:42:23;;;;;;;4.32;1.90;;;20.60;30.80;;;;;;5092597;28;20507;-67
2021/04/18 11:44:48;;;;;;;3.65;1.55;;;20.60;30.80;;;;;;5094057;28;20027;-67
2021/04/18 11:47:14;;;;;;;2.95;1.60;;;20.60;30.80;;;;;;5093945;28;20024;-67
2021/04/18 11:49:39;;;;;;;4.03;1.70;;;20.60;30.80;;;;;;5093552;28;20016;-67
2021/04/18 11:52:05;;;;;;;4.85;1.75;;;20.60;30.80;;;;;;5093941;28;20032;-68
2021/04/18 11:54:31;;;;;;;3.88;1.55;;;20.60;30.70;;;;;;5093880;28;20023;-67
2021/04/18 11:56:56;;;;;;;3.13;1.45;;;20.60;30.70;;;;;;5093774;28;20024;-67
2021/04/18 11:59:22;;;;;;;4.07;1.80;;;20.70;30.70;;;;;;5093427;28;20464;-67
2021/04/18 12:01:48;;;;;;;4.03;1.48;;;20.70;30.70;;;;;;5093651;28;20047;-67
2021/04/18 12:04:13;;;;;;;3.85;1.83;;;20.70;30.70;;;;;;5092661;28;20020;-67
2021/04/18 12:06:39;;;;;;;4.63;1.75;;;20.80;30.60;;;;;;5093648;28;20035;-67
2021/04/18 12:09:05;;;;;;;3.33;1.70;;;20.80;30.50;;;;;;5093550;28;20020;-67
2021/04/18 12:11:31;;;;;;;4.22;1.63;;;20.90;30.50;;;;;;5093581;28;20034;-67
2021/04/18 12:13:57;;;;;;;3.00;1.58;;;21.00;30.40;;;;;;5093728;28;20111;-67
2021/04/18 12:16:23;;;;;;;4.15;1.50;;;21.00;30.40;;;;;;5093651;28;20103;-67
2021/04/18 12:18:48;;;;;;;4.45;1.98;;;21.10;30.30;;;;;;5093479;28;20047;-67
2021/04/18 12:21:14;;;;;;;5.80;1.73;;;21.10;30.30;;;;;;5093332;28;20031;-67
2021/04/18 12:23:40;;;;;;;3.83;1.50;;;21.10;30.30;;;;;;5093353;28;20024;-67
2021/04/18 12:26:05;;;;;;;3.55;1.63;;;21.10;30.30;;;;;;5093481;28;20130;-67
2021/04/18 12:28:31;;;;;;;3.28;1.52;;;21.00;30.40;;;;;;5093211;28;20024;-68
2021/04/18 12:30:57;;;;;;;2.95;1.40;;;21.00;30.40;;;;;;5093518;28;20352;-67
2021/04/18 12:33:23;;;;;;;3.67;1.52;;;21.00;30.50;;;;;;5093639;28;20032;-67
2021/04/18 12:35:49;;;;;;;3.25;1.55;;;21.00;30.50;;;;;;5093424;28;20121;-67
2021/04/18 12:38:14;;;;;;;3.55;1.42;;;20.90;30.60;;;;;;5093749;28;20028;-67
2021/04/18 12:40:40;;;;;;;3.50;1.40;;;20.90;30.60;;;;;;5093246;28;20039;-67
2021/04/18 12:43:06;;;;;;;3.35;1.42;;;20.90;30.70;;;;;;5093954;28;20096;-67
2021/04/18 12:45:31;;;;;;;3.40;1.42;;;20.90;30.70;;;;;;5097177;28;20034;-67
2021/04/18 12:47:57;;;;;;;4.72;1.83;;;20.80;30.70;;;;;;5097232;28;20028;-67